createdAt,value
2023-02-01T00:01:16.650Z,5.40
2023-02-01T00:03:44.680Z,5.30
2023-02-01T00:06:12.510Z,5.40
2023-02-01T00:08:40.335Z,5.40
2023-02-01T00:11:10.135Z,5.30
2023-02-01T00:13:40.049Z,5.40
2023-02-01T00:16:09.846Z,5.40
2023-02-01T00:18:43.531Z,5.30
2023-02-01T00:21:12.643Z,5.40
2023-02-01T00:23:40.840Z,5.40
2023-02-01T00:26:13.988Z,5.40
2023-02-01T00:28:41.893Z,5.40
2023-02-01T00:31:09.754Z,5.40
2023-02-01T00:33:46.066Z,5.40
2023-02-01T00:36:13.886Z,5.40
2023-02-01T00:38:42.058Z,5.40
2023-02-01T00:41:13.159Z,5.40
2023-02-01T00:43:41.771Z,5.40
2023-02-01T00:46:09.939Z,5.40
2023-02-01T00:48:37.955Z,5.40
2023-02-01T00:51:09.712Z,5.40
2023-02-01T00:53:38.088Z,5.40
2023-02-01T00:56:07.084Z,5.40
2023-02-01T00:58:37.649Z,5.40
2023-02-01T01:01:09.578Z,5.50
2023-02-01T01:03:42.024Z,5.50
2023-02-01T01:06:12.691Z,5.50
2023-02-01T01:08:40.983Z,5.50
2023-02-01T01:11:12.638Z,5.40
2023-02-01T01:13:40.835Z,5.40
2023-02-01T01:16:09.926Z,5.40
2023-02-01T01:18:38.091Z,5.50
2023-02-01T01:21:09.211Z,5.50
2023-02-01T01:23:38.773Z,5.50
2023-02-01T01:26:11.056Z,5.50
2023-02-01T01:28:38.880Z,5.50
2023-02-01T01:31:10.274Z,5.50
2023-02-01T01:33:38.576Z,5.50
2023-02-01T01:36:07.215Z,5.50
2023-02-01T01:38:35.367Z,5.50
2023-02-01T01:41:04.565Z,5.50
2023-02-01T01:43:49.449Z,5.50
2023-02-01T01:46:19.453Z,5.50
2023-02-01T01:48:49.873Z,5.50
2023-02-01T01:51:21.371Z,5.50
2023-02-01T01:53:57.220Z,5.50
2023-02-01T01:56:28.606Z,5.50
2023-02-01T01:58:57.023Z,5.50
2023-02-01T02:01:24.838Z,5.50
2023-02-01T02:03:54.215Z,5.50
2023-02-01T02:06:36.871Z,5.50
2023-02-01T02:09:07.014Z,5.50
2023-02-01T02:11:38.640Z,5.50
2023-02-01T02:14:10.345Z,5.50
2023-02-01T02:16:48.936Z,5.50
2023-02-01T02:19:50.979Z,5.50
2023-02-01T02:22:48.210Z,5.50
2023-02-01T02:25:50.200Z,5.50
2023-02-01T02:28:39.862Z,5.50
2023-02-01T02:31:29.301Z,5.50
2023-02-01T02:34:10.460Z,5.50
2023-02-01T02:36:46.827Z,5.50
2023-02-01T02:39:21.961Z,5.50
2023-02-01T02:42:17.613Z,5.50
2023-02-01T02:45:09.480Z,5.50
2023-02-01T02:47:46.226Z,5.50
2023-02-01T02:50:41.607Z,5.50
2023-02-01T02:53:32.069Z,5.50
2023-02-01T02:56:18.945Z,5.50
2023-02-01T02:59:06.227Z,5.50
2023-02-01T03:01:52.673Z,5.50
2023-02-01T03:04:22.051Z,5.50
2023-02-01T03:06:51.567Z,5.50
2023-02-01T03:09:25.023Z,5.50
2023-02-01T03:12:15.156Z,5.50
2023-02-01T03:14:47.121Z,5.50
2023-02-01T03:17:19.359Z,5.50
2023-02-01T03:19:53.012Z,5.50
2023-02-01T03:22:26.274Z,5.50
2023-02-01T03:24:56.627Z,5.60
2023-02-01T03:27:30.025Z,5.60
2023-02-01T03:30:03.598Z,5.50
2023-02-01T03:32:52.020Z,5.50
2023-02-01T03:35:22.783Z,5.50
2023-02-01T03:37:52.508Z,5.50
2023-02-01T03:40:21.490Z,5.50
2023-02-01T03:42:54.769Z,5.60
2023-02-01T03:45:27.615Z,5.60
2023-02-01T03:47:59.118Z,5.50
2023-02-01T03:50:29.123Z,5.50
2023-02-01T03:53:04.055Z,5.60
2023-02-01T03:55:35.539Z,5.50
2023-02-01T03:58:07.557Z,5.60
2023-02-01T04:00:35.681Z,5.60
2023-02-01T04:03:05.462Z,5.60
2023-02-01T04:05:33.451Z,5.50
2023-02-01T04:08:02.695Z,5.60
2023-02-01T04:10:30.598Z,5.60
2023-02-01T04:13:01.164Z,5.60
2023-02-01T04:15:29.072Z,5.60
2023-02-01T04:17:56.891Z,5.60
2023-02-01T04:20:25.057Z,5.60
2023-02-01T04:22:53.157Z,5.60
2023-02-01T04:25:22.718Z,5.60
2023-02-01T04:27:50.543Z,5.60
2023-02-01T04:30:19.083Z,5.60
2023-02-01T04:32:49.986Z,5.60
2023-02-01T04:35:18.677Z,5.60
2023-02-01T04:37:46.471Z,5.60
2023-02-01T04:40:14.708Z,5.60
2023-02-01T04:42:46.709Z,5.60
2023-02-01T04:45:14.667Z,5.60
2023-02-01T04:47:43.717Z,5.60
2023-02-01T04:50:12.455Z,5.60
2023-02-01T04:52:42.458Z,5.60
2023-02-01T04:55:10.971Z,5.60
2023-02-01T04:57:39.632Z,5.60
2023-02-01T05:00:11.369Z,5.60
2023-02-01T05:02:39.584Z,5.60
2023-02-01T05:05:08.156Z,5.60
2023-02-01T05:07:35.993Z,5.60
2023-02-01T05:10:04.784Z,5.60
2023-02-01T05:12:50.106Z,5.60
2023-02-01T05:15:22.285Z,5.60
2023-02-01T05:17:50.105Z,5.50
2023-02-01T05:20:18.245Z,5.60
2023-02-01T05:22:47.083Z,5.50
2023-02-01T05:25:15.106Z,5.60
2023-02-01T05:27:43.013Z,5.60
2023-02-01T05:30:12.132Z,5.60
2023-02-01T05:32:41.406Z,5.50
2023-02-01T05:35:10.233Z,5.60
2023-02-01T05:37:38.080Z,5.60
2023-02-01T05:40:06.751Z,5.50
2023-02-01T05:42:34.914Z,5.60
2023-02-01T05:45:02.796Z,5.60
2023-02-01T05:47:30.609Z,5.60
2023-02-01T05:49:59.795Z,5.50
2023-02-01T05:52:27.626Z,5.50
2023-02-01T05:54:55.420Z,5.60
2023-02-01T05:57:23.293Z,5.50
2023-02-01T05:59:51.287Z,5.60
2023-02-01T06:02:19.151Z,5.50
2023-02-01T06:04:51.812Z,5.60
2023-02-01T06:07:22.856Z,5.50
2023-02-01T06:09:50.633Z,5.50
2023-02-01T06:12:18.466Z,5.60
2023-02-01T06:14:47.966Z,5.50
2023-02-01T06:17:18.175Z,5.60
2023-02-01T06:19:46.013Z,5.50
2023-02-01T06:22:14.199Z,5.50
2023-02-01T06:24:46.265Z,5.50
2023-02-01T06:27:14.153Z,5.50
2023-02-01T06:29:41.969Z,5.50
2023-02-01T06:32:11.358Z,5.50
2023-02-01T06:34:40.548Z,5.50
2023-02-01T06:37:08.380Z,5.50
2023-02-01T06:39:36.752Z,5.50
2023-02-01T06:42:09.116Z,5.50
2023-02-01T06:44:37.148Z,5.50
2023-02-01T06:47:08.019Z,5.50
2023-02-01T06:49:37.164Z,5.50
2023-02-01T06:52:07.482Z,5.50
2023-02-01T06:54:38.237Z,5.50
2023-02-01T06:57:07.475Z,5.50
2023-02-01T06:59:35.724Z,5.50
2023-02-01T07:02:03.580Z,5.50
2023-02-01T07:04:31.457Z,5.50
2023-02-01T07:06:59.274Z,5.50
2023-02-01T07:09:27.051Z,5.50
2023-02-01T07:11:54.885Z,5.50
2023-02-01T07:14:24.035Z,5.50
2023-02-01T07:16:52.035Z,5.50
2023-02-01T07:19:19.788Z,5.50
2023-02-01T07:21:49.352Z,5.50
2023-02-01T07:24:17.438Z,5.50
2023-02-01T07:26:45.284Z,5.50
2023-02-01T07:29:14.405Z,5.50
2023-02-01T07:31:45.885Z,5.50
2023-02-01T07:34:13.704Z,5.50
2023-02-01T07:36:41.573Z,5.50
2023-02-01T07:39:09.477Z,5.50
2023-02-01T07:41:43.046Z,5.50
2023-02-01T07:44:10.824Z,5.50
2023-02-01T07:46:43.141Z,5.50
2023-02-01T07:49:13.209Z,5.50
2023-02-01T07:51:41.069Z,5.50
2023-02-01T07:54:08.917Z,5.50
2023-02-01T07:56:37.151Z,5.50
2023-02-01T07:59:06.325Z,5.50
2023-02-01T08:01:34.456Z,5.50
2023-02-01T08:04:03.756Z,5.60
2023-02-01T08:06:37.197Z,5.50
2023-02-01T08:09:11.144Z,5.50
2023-02-01T08:11:42.079Z,5.50
2023-02-01T08:14:11.580Z,5.50
2023-02-01T08:16:40.283Z,5.50
2023-02-01T08:19:20.229Z,5.50
2023-02-01T08:21:50.792Z,5.60
2023-02-01T08:24:18.585Z,5.60
2023-02-01T08:26:46.507Z,5.60
2023-02-01T08:29:14.739Z,5.60
2023-02-01T08:32:01.420Z,5.60
2023-02-01T08:34:29.465Z,5.50
2023-02-01T08:37:01.939Z,5.60
2023-02-01T08:39:29.806Z,5.60
2023-02-01T08:42:15.162Z,5.60
2023-02-01T08:44:43.315Z,5.60
2023-02-01T08:47:12.302Z,5.60
2023-02-01T08:49:40.145Z,5.60
2023-02-01T08:52:15.700Z,5.60
2023-02-01T08:54:44.310Z,5.60
2023-02-01T08:57:12.162Z,5.70
2023-02-01T08:59:39.930Z,5.70
2023-02-01T09:02:08.219Z,5.70
2023-02-01T09:04:36.024Z,5.70
2023-02-01T09:07:03.826Z,5.70
2023-02-01T09:09:33.035Z,5.70
2023-02-01T09:12:00.908Z,5.80
2023-02-01T09:14:28.783Z,5.80
2023-02-01T09:16:56.722Z,5.80
2023-02-01T09:19:26.721Z,5.80
2023-02-01T09:21:56.038Z,5.80
2023-02-01T09:24:23.899Z,5.90
2023-02-01T09:26:53.565Z,5.90
2023-02-01T09:29:21.403Z,5.90
2023-02-01T09:32:03.156Z,5.90
2023-02-01T09:34:32.428Z,5.90
2023-02-01T09:37:00.274Z,5.90
2023-02-01T09:39:28.098Z,5.90
2023-02-01T09:42:10.071Z,5.90
2023-02-01T09:44:52.932Z,5.90
2023-02-01T09:47:23.417Z,6.00
2023-02-01T09:49:58.592Z,6.00
2023-02-01T09:52:31.252Z,6.00
2023-02-01T09:55:05.801Z,6.00
2023-02-01T09:57:45.969Z,6.00
2023-02-01T10:00:22.714Z,6.00
2023-02-01T10:02:55.150Z,6.10
2023-02-01T10:05:40.562Z,6.10
2023-02-01T10:08:21.168Z,6.10
2023-02-01T10:10:54.339Z,6.10
2023-02-01T10:13:40.843Z,6.10
2023-02-01T10:16:18.747Z,6.20
2023-02-01T10:19:02.974Z,6.20
2023-02-01T10:21:49.144Z,6.20
2023-02-01T10:24:36.963Z,6.20
2023-02-01T10:27:14.341Z,6.30
2023-02-01T10:29:47.971Z,6.30
2023-02-01T10:32:18.471Z,6.30
2023-02-01T10:34:50.818Z,6.40
2023-02-01T10:37:26.848Z,6.40
2023-02-01T10:39:58.513Z,6.40
2023-02-01T10:42:30.065Z,6.40
2023-02-01T10:45:02.570Z,6.40
2023-02-01T10:47:30.366Z,6.40
2023-02-01T10:50:08.836Z,6.40
2023-02-01T10:52:42.816Z,6.40
2023-02-01T10:55:41.282Z,6.40
2023-02-01T10:58:17.612Z,6.40
2023-02-01T11:00:50.234Z,6.40
2023-02-01T11:03:40.724Z,6.40
2023-02-01T11:06:19.692Z,6.40
2023-02-01T11:08:49.805Z,6.50
2023-02-01T11:11:19.350Z,6.40
2023-02-01T11:13:55.164Z,6.40
2023-02-01T11:16:36.413Z,6.50
2023-02-01T11:19:06.289Z,6.40
2023-02-01T11:21:35.480Z,6.40
2023-02-01T11:24:05.231Z,6.40
2023-02-01T11:26:33.982Z,6.40
2023-02-01T11:29:05.075Z,6.40
2023-02-01T11:31:36.841Z,6.40
2023-02-01T11:34:10.456Z,6.40
2023-02-01T11:36:39.309Z,6.50
2023-02-01T11:39:20.371Z,6.50
2023-02-01T11:42:00.420Z,6.50
2023-02-01T11:44:34.380Z,6.50
2023-02-01T11:47:22.315Z,6.50
2023-02-01T11:49:52.116Z,6.50
2023-02-01T11:52:31.823Z,6.50
2023-02-01T11:55:15.099Z,6.50
2023-02-01T11:57:54.448Z,6.50
2023-02-01T12:00:48.458Z,6.50
2023-02-01T12:04:04.982Z,6.50
2023-02-01T12:06:47.419Z,6.50
2023-02-01T12:09:27.517Z,6.60
2023-02-01T12:12:05.342Z,6.50
2023-02-01T12:14:44.370Z,6.50
2023-02-01T12:17:43.679Z,6.60
2023-02-01T12:20:33.407Z,6.60
2023-02-01T12:23:16.289Z,6.50
2023-02-01T12:26:01.460Z,6.50
2023-02-01T12:29:04.784Z,6.50
2023-02-01T12:31:48.220Z,6.50
2023-02-01T12:34:32.807Z,6.50
2023-02-01T12:37:11.351Z,6.50
2023-02-01T12:39:46.529Z,6.50
2023-02-01T12:42:19.882Z,6.50
2023-02-01T12:44:53.071Z,6.50
2023-02-01T12:47:26.710Z,6.50
2023-02-01T12:49:59.461Z,6.50
2023-02-01T12:52:36.129Z,6.50
2023-02-01T12:55:10.045Z,6.50
2023-02-01T12:57:42.028Z,6.50
2023-02-01T13:00:23.144Z,6.60
2023-02-01T13:02:54.383Z,6.50
2023-02-01T13:05:25.032Z,6.50
2023-02-01T13:07:57.233Z,6.50
2023-02-01T13:10:34.722Z,6.50
2023-02-01T13:13:12.717Z,6.50
2023-02-01T13:15:45.790Z,6.50
2023-02-01T13:18:18.515Z,6.60
2023-02-01T13:20:53.216Z,6.60
2023-02-01T13:23:27.885Z,6.60
2023-02-01T13:25:57.319Z,6.60
2023-02-01T13:28:29.685Z,6.60
2023-02-01T13:31:15.806Z,6.60
2023-02-01T13:34:08.827Z,6.60
2023-02-01T13:37:07.253Z,6.60
2023-02-01T13:39:53.563Z,6.60
2023-02-01T13:42:25.934Z,6.60
2023-02-01T13:44:58.763Z,6.60
2023-02-01T13:47:30.950Z,6.60
2023-02-01T13:50:03.901Z,6.60
2023-02-01T13:52:39.773Z,6.60
2023-02-01T13:55:33.817Z,6.60
2023-02-01T13:58:17.557Z,6.60
2023-02-01T14:00:45.987Z,6.60
2023-02-01T14:03:19.558Z,6.60
2023-02-01T14:06:18.645Z,6.60
2023-02-01T14:09:08.090Z,6.60
2023-02-01T14:11:48.080Z,6.70
2023-02-01T14:14:48.195Z,6.70
2023-02-01T14:17:38.060Z,6.70
2023-02-01T14:20:49.627Z,6.70
2023-02-01T14:23:18.949Z,6.70
2023-02-01T14:25:48.712Z,6.70
2023-02-01T14:28:26.740Z,6.70
2023-02-01T14:30:59.861Z,6.70
2023-02-01T14:33:30.039Z,6.70
2023-02-01T14:36:11.023Z,6.70
2023-02-01T14:38:40.718Z,6.70
2023-02-01T14:41:30.699Z,6.70
2023-02-01T14:44:28.336Z,6.70
2023-02-01T14:47:32.745Z,6.70
2023-02-01T14:50:19.223Z,6.70
2023-02-01T14:52:49.461Z,6.80
2023-02-01T14:55:22.734Z,6.70
2023-02-01T14:57:56.838Z,6.70
2023-02-01T15:00:29.197Z,6.80
2023-02-01T15:03:18.100Z,6.80
2023-02-01T15:05:45.986Z,6.70
2023-02-01T15:08:19.502Z,6.70
2023-02-01T15:10:50.896Z,6.80
2023-02-01T15:13:24.458Z,6.80
2023-02-01T15:16:06.989Z,6.80
2023-02-01T15:18:36.141Z,6.80
2023-02-01T15:21:27.851Z,6.80
2023-02-01T15:24:12.587Z,6.80
2023-02-01T15:26:40.689Z,6.80
2023-02-01T15:29:13.191Z,6.80
2023-02-01T15:31:43.770Z,6.80
2023-02-01T15:34:13.538Z,6.80
2023-02-01T15:36:47.851Z,6.80
2023-02-01T15:39:26.822Z,6.90
2023-02-01T15:41:57.946Z,6.90
2023-02-01T15:44:38.219Z,6.80
2023-02-01T15:47:15.633Z,6.80
2023-02-01T15:49:46.989Z,6.90
2023-02-01T15:52:24.176Z,6.90
2023-02-01T15:54:55.851Z,6.90
2023-02-01T15:57:31.653Z,6.90
2023-02-01T16:00:02.147Z,6.90
2023-02-01T16:02:41.151Z,6.90
2023-02-01T16:05:36.718Z,6.90
2023-02-01T16:08:16.024Z,6.90
2023-02-01T16:10:46.477Z,6.90
2023-02-01T16:13:15.151Z,6.90
2023-02-01T16:15:43.285Z,6.90
2023-02-01T16:18:18.913Z,6.90
2023-02-01T16:20:50.178Z,6.90
2023-02-01T16:23:18.167Z,6.90
2023-02-01T16:25:45.984Z,6.90
2023-02-01T16:28:13.848Z,6.90
2023-02-01T16:30:41.784Z,6.90
2023-02-01T16:33:19.214Z,6.90
2023-02-01T16:35:48.471Z,6.90
2023-02-01T16:38:19.559Z,6.90
2023-02-01T16:40:48.243Z,6.90
2023-02-01T16:43:17.806Z,6.90
2023-02-01T16:45:48.817Z,6.90
2023-02-01T16:48:19.713Z,6.90
2023-02-01T16:50:51.721Z,6.90
2023-02-01T16:53:20.321Z,6.90
2023-02-01T16:55:50.331Z,6.90
2023-02-01T16:58:18.749Z,6.90
2023-02-01T17:00:47.987Z,6.90
2023-02-01T17:03:17.509Z,6.90
2023-02-01T17:05:47.128Z,6.90
2023-02-01T17:08:20.410Z,6.90
2023-02-01T17:10:48.308Z,6.90
2023-02-01T17:13:17.252Z,6.90
2023-02-01T17:15:50.901Z,6.90
2023-02-01T17:18:20.077Z,6.90
2023-02-01T17:20:48.545Z,6.80
2023-02-01T17:23:18.717Z,6.80
2023-02-01T17:25:48.363Z,6.80
2023-02-01T17:28:16.177Z,6.80
2023-02-01T17:30:44.052Z,6.80
2023-02-01T17:33:22.675Z,6.80
2023-02-01T17:35:50.744Z,6.80
2023-02-01T17:38:20.755Z,6.80
2023-02-01T17:40:48.682Z,6.80
2023-02-01T17:43:19.785Z,6.80
2023-02-01T17:45:52.552Z,6.80
2023-02-01T17:48:21.442Z,6.90
2023-02-01T17:50:54.472Z,6.80
2023-02-01T17:53:24.540Z,6.80
2023-02-01T17:55:53.524Z,6.80
2023-02-01T17:58:22.740Z,6.80
2023-02-01T18:00:51.695Z,6.80
2023-02-01T18:03:24.267Z,6.80
2023-02-01T18:05:53.586Z,6.90
2023-02-01T18:08:24.514Z,6.80
2023-02-01T18:10:55.095Z,6.80
2023-02-01T18:13:23.267Z,6.80
2023-02-01T18:15:51.034Z,6.80
2023-02-01T18:18:18.810Z,6.80
2023-02-01T18:20:48.870Z,6.80
2023-02-01T18:23:19.155Z,6.80
2023-02-01T18:25:48.489Z,6.80
2023-02-01T18:28:17.439Z,6.90
2023-02-01T18:30:48.224Z,6.80
2023-02-01T18:33:18.568Z,6.90
2023-02-01T18:35:46.562Z,6.90
2023-02-01T18:38:14.339Z,6.80
2023-02-01T18:40:49.323Z,6.90
2023-02-01T18:43:18.605Z,6.80
2023-02-01T18:45:47.831Z,6.90
2023-02-01T18:48:16.878Z,6.90
2023-02-01T18:50:46.328Z,6.80
2023-02-01T18:53:16.532Z,6.90
2023-02-01T18:55:44.480Z,6.90
2023-02-01T18:58:15.944Z,6.90
2023-02-01T19:00:46.610Z,6.90
2023-02-01T19:03:15.611Z,6.90
2023-02-01T19:05:43.699Z,6.80
2023-02-01T19:08:11.801Z,6.80
2023-02-01T19:10:40.095Z,6.90
2023-02-01T19:13:08.076Z,6.90
2023-02-01T19:15:40.318Z,6.90
2023-02-01T19:18:10.639Z,6.90
2023-02-01T19:20:41.250Z,6.90
2023-02-01T19:23:09.274Z,6.90
2023-02-01T19:25:37.468Z,6.90
2023-02-01T19:28:05.795Z,6.90
2023-02-01T19:30:33.586Z,6.90
2023-02-01T19:33:02.537Z,6.90
2023-02-01T19:35:32.452Z,6.90
2023-02-01T19:38:00.892Z,6.90
2023-02-01T19:40:29.121Z,6.90
2023-02-01T19:42:56.954Z,6.90
2023-02-01T19:45:25.252Z,6.90
2023-02-01T19:47:53.336Z,6.90
2023-02-01T19:50:22.602Z,6.90
2023-02-01T19:52:51.790Z,6.90
2023-02-01T19:55:19.548Z,7.00
2023-02-01T19:57:47.484Z,6.90
2023-02-01T20:00:14.710Z,7.00
2023-02-01T20:02:43.653Z,6.90
2023-02-01T20:05:11.792Z,6.90
2023-02-01T20:07:39.924Z,6.90
2023-02-01T20:10:10.754Z,6.90
2023-02-01T20:12:38.666Z,6.90
2023-02-01T20:15:08.101Z,6.90
2023-02-01T20:17:41.776Z,6.90
2023-02-01T20:20:11.043Z,6.90
2023-02-01T20:22:39.007Z,6.90
2023-02-01T20:25:11.311Z,7.00
2023-02-01T20:27:41.412Z,7.00
2023-02-01T20:30:10.874Z,6.90
2023-02-01T20:32:40.798Z,7.00
2023-02-01T20:35:09.954Z,7.00
2023-02-01T20:37:37.860Z,7.00
2023-02-01T20:40:06.512Z,7.00
2023-02-01T20:42:35.895Z,7.00
2023-02-01T20:45:05.711Z,7.00
2023-02-01T20:47:33.568Z,7.00
2023-02-01T20:50:01.380Z,7.00
2023-02-01T20:52:29.223Z,7.00
2023-02-01T20:54:57.081Z,7.00
2023-02-01T20:57:25.003Z,7.00
2023-02-01T20:59:52.885Z,6.90
2023-02-01T21:02:22.097Z,6.90
2023-02-01T21:04:49.960Z,7.00
2023-02-01T21:07:17.750Z,6.90
2023-02-01T21:09:45.648Z,6.90
2023-02-01T21:12:13.571Z,7.00
2023-02-01T21:14:41.363Z,7.00
2023-02-01T21:17:09.173Z,7.00
2023-02-01T21:19:43.693Z,7.00
2023-02-01T21:22:11.904Z,7.00
2023-02-01T21:24:41.095Z,7.00
2023-02-01T21:27:09.161Z,7.00
2023-02-01T21:29:37.229Z,7.00
2023-02-01T21:32:06.639Z,6.90
2023-02-01T21:34:34.828Z,7.00
2023-02-01T21:37:04.521Z,7.00
2023-02-01T21:39:32.315Z,7.00
2023-02-01T21:42:16.616Z,7.00
2023-02-01T21:44:46.213Z,7.00
2023-02-01T21:47:17.164Z,7.00
2023-02-01T21:49:45.920Z,7.00
2023-02-01T21:52:15.780Z,7.00
2023-02-01T21:54:44.080Z,7.00
2023-02-01T21:57:12.947Z,7.00
2023-02-01T21:59:44.641Z,7.00
2023-02-01T22:02:14.804Z,7.00
2023-02-01T22:04:42.842Z,7.00
2023-02-01T22:07:11.640Z,7.00
2023-02-01T22:09:40.870Z,7.00
2023-02-01T22:12:14.260Z,7.00
2023-02-01T22:14:44.746Z,7.00
2023-02-01T22:17:13.855Z,7.00
2023-02-01T22:19:42.498Z,7.00
2023-02-01T22:22:11.452Z,7.00
2023-02-01T22:24:40.676Z,7.00
2023-02-01T22:27:14.355Z,7.00
2023-02-01T22:29:43.562Z,7.00
2023-02-01T22:32:13.683Z,7.00
2023-02-01T22:34:41.648Z,7.00
2023-02-01T22:37:11.075Z,6.90
2023-02-01T22:39:41.297Z,7.00
2023-02-01T22:42:09.190Z,6.90
2023-02-01T22:44:37.226Z,7.00
2023-02-01T22:47:05.180Z,7.00
2023-02-01T22:49:33.062Z,7.00
2023-02-01T22:52:01.604Z,7.00
2023-02-01T22:54:29.582Z,7.00
2023-02-01T22:57:00.049Z,7.00
2023-02-01T22:59:28.122Z,6.90
2023-02-01T23:01:55.977Z,7.00
2023-02-01T23:04:23.749Z,7.00
2023-02-01T23:06:52.255Z,7.00
2023-02-01T23:09:21.725Z,6.90
2023-02-01T23:11:50.223Z,7.00
2023-02-01T23:14:19.938Z,7.00
2023-02-01T23:16:49.461Z,7.00
2023-02-01T23:19:18.042Z,6.90
2023-02-01T23:21:45.865Z,7.00
2023-02-01T23:24:14.153Z,6.90
2023-02-01T23:26:42.360Z,6.90
2023-02-01T23:29:17.150Z,7.00
2023-02-01T23:31:46.595Z,7.00
2023-02-01T23:34:14.522Z,6.90
2023-02-01T23:36:42.319Z,7.00
2023-02-01T23:39:10.186Z,6.90
2023-02-01T23:41:38.077Z,6.90
2023-02-01T23:44:06.147Z,6.90
2023-02-01T23:46:36.724Z,7.00
2023-02-01T23:49:08.076Z,6.90
2023-02-01T23:51:36.005Z,7.00
2023-02-01T23:54:04.728Z,6.90
2023-02-01T23:56:34.551Z,6.90
2023-02-01T23:59:03.833Z,6.90
